This is the latest recevied weather packets stored in our database for station/object KB3KAV. If no packets are shown the sender has not sent any weather packets the latest 10 day(s).
| Time | Temp. | Humidity | Pressure | Rain* | Wind** | Luminosity | Snow |
|---|---|---|---|---|---|---|---|
| 1777836154 | 13.89° C | 33% | 1040.2 hPa | 0 mm | - | 216 W/m² | - |
| 1777835548 | 13.89° C | 30% | 1040.5 hPa | 0 mm | - | 217 W/m² | - |
| 1777834947 | 13.33° C | 30% | 1040.5 hPa | 0 mm | - | 818 W/m² | - |
| 1777834346 | 13.89° C | 29% | 1040.7 hPa | 0 mm | - | 454 W/m² | - |
| 1777833743 | 13.89° C | 31% | 1040.9 hPa | 0 mm | - | 801 W/m² | - |
| 1777833143 | 12.78° C | 33% | 1041.1 hPa | 0 mm | - | 255 W/m² | - |
| 1777832539 | 13.33° C | 31% | 1041 hPa | 0 mm | - | 274 W/m² | - |
| 1777831938 | 12.22° C | 32% | 1041 hPa | 0 mm | - | 318 W/m² | - |
| 1777831333 | 13.33° C | 32% | 1041.1 hPa | 0 mm | - | 275 W/m² | - |
| 1777830733 | 12.22° C | 32% | 1041.4 hPa | 0 mm | - | 857 W/m² | - |
| 1777830133 | 12.22° C | 33% | 1041.5 hPa | 0 mm | - | 320 W/m² | - |
| 1777829529 | 11.67° C | 35% | 1041.9 hPa | 0 mm | - | 359 W/m² | - |
| 1777828929 | 12.22° C | 34% | 1041.7 hPa | 0 mm | - | 206 W/m² | - |
| 1777828328 | 11.11° C | 38% | 1041.9 hPa | 0 mm | - | 845 W/m² | - |
| 1777827728 | 11.67° C | 35% | 1042.1 hPa | 0 mm | - | 672 W/m² | - |
| 1777827128 | 11.11° C | 35% | 1042.1 hPa | 0 mm | - | 271 W/m² | - |
| 1777826528 | 10.56° C | 39% | 1042.1 hPa | 0 mm | - | 297 W/m² | - |
| 1777825927 | 10.56° C | 36% | 1042.3 hPa | 0 mm | - | 814 W/m² | - |
| 1777825322 | 10° C | 37% | 1042.5 hPa | 0 mm | - | 927 W/m² | - |
| 1777824720 | 10.56° C | 36% | 1042.4 hPa | 0 mm | - | 294 W/m² | - |
| 1777824119 | 10° C | 36% | 1042.6 hPa | 0 mm | - | 324 W/m² | - |
| 1777823513 | 10° C | 36% | 1042.8 hPa | 0 mm | - | 424 W/m² | - |
| 1777822908 | 10° C | 37% | 1042.5 hPa | 0 mm | - | 783 W/m² | - |
| 1777822309 | 10° C | 36% | 1042.9 hPa | 0 mm | - | 843 W/m² | - |
| 1777821704 | 10.56° C | 36% | 1042.6 hPa | 0 mm | - | 839 W/m² | - |
* Rain latest hour (hover to see other rain measurements)
** Current wind speed in m/s (hover to see current wind gust speed)